sensor_id;sensor_type;location;lat;lon;timestamp;P1;durP1;ratioP1;P2;durP2;ratioP2
419;SDS011;42600;54.408;13.016;2024-03-25T00:01:02;0.90;;;0.50;;
419;SDS011;42600;54.408;13.016;2024-03-25T00:03:29;3.00;;;0.70;;
419;SDS011;42600;54.408;13.016;2024-03-25T00:05:55;1.97;;;0.93;;
419;SDS011;42600;54.408;13.016;2024-03-25T00:08:23;1.37;;;1.13;;
419;SDS011;42600;54.408;13.016;2024-03-25T00:10:49;4.60;;;2.13;;
419;SDS011;42600;54.408;13.016;2024-03-25T00:13:15;1.30;;;0.77;;
419;SDS011;42600;54.408;13.016;2024-03-25T00:15:41;3.13;;;0.87;;
419;SDS011;42600;54.408;13.016;2024-03-25T00:18:08;1.40;;;0.60;;
419;SDS011;42600;54.408;13.016;2024-03-25T00:20:36;2.63;;;1.10;;
419;SDS011;42600;54.408;13.016;2024-03-25T00:23:02;6.60;;;1.33;;
419;SDS011;42600;54.408;13.016;2024-03-25T00:25:30;1.87;;;0.87;;
419;SDS011;42600;54.408;13.016;2024-03-25T00:27:56;1.30;;;0.70;;
419;SDS011;42600;54.408;13.016;2024-03-25T00:30:22;7.20;;;1.73;;
419;SDS011;42600;54.408;13.016;2024-03-25T00:32:49;0.90;;;0.40;;
419;SDS011;42600;54.408;13.016;2024-03-25T00:35:15;1.27;;;0.53;;
419;SDS011;42600;54.408;13.016;2024-03-25T00:37:43;2.53;;;0.70;;
419;SDS011;42600;54.408;13.016;2024-03-25T00:40:10;1.50;;;1.10;;
419;SDS011;42600;54.408;13.016;2024-03-25T00:42:38;1.50;;;0.80;;
419;SDS011;42600;54.408;13.016;2024-03-25T00:45:04;1.80;;;1.40;;
419;SDS011;42600;54.408;13.016;2024-03-25T00:47:32;1.10;;;0.70;;
419;SDS011;42600;54.408;13.016;2024-03-25T00:49:58;1.10;;;0.63;;
419;SDS011;42600;54.408;13.016;2024-03-25T00:52:24;1.57;;;1.10;;
419;SDS011;42600;54.408;13.016;2024-03-25T00:54:50;4.50;;;0.60;;
419;SDS011;42600;54.408;13.016;2024-03-25T00:57:17;0.80;;;0.40;;
419;SDS011;42600;54.408;13.016;2024-03-25T00:59:44;1.27;;;0.70;;
419;SDS011;42600;54.408;13.016;2024-03-25T01:02:11;1.10;;;0.83;;
419;SDS011;42600;54.408;13.016;2024-03-25T01:04:36;1.83;;;1.07;;
419;SDS011;42600;54.408;13.016;2024-03-25T01:07:03;2.63;;;1.63;;
419;SDS011;42600;54.408;13.016;2024-03-25T01:09:29;1.10;;;0.60;;
419;SDS011;42600;54.408;13.016;2024-03-25T01:11:56;1.30;;;0.87;;
419;SDS011;42600;54.408;13.016;2024-03-25T01:14:22;3.00;;;0.87;;
419;SDS011;42600;54.408;13.016;2024-03-25T01:16:50;1.30;;;1.00;;
419;SDS011;42600;54.408;13.016;2024-03-25T01:19:16;1.00;;;0.50;;
419;SDS011;42600;54.408;13.016;2024-03-25T01:21:42;1.20;;;0.70;;
419;SDS011;42600;54.408;13.016;2024-03-25T01:24:09;0.80;;;0.30;;
419;SDS011;42600;54.408;13.016;2024-03-25T01:26:35;1.60;;;1.23;;
419;SDS011;42600;54.408;13.016;2024-03-25T01:29:01;1.10;;;0.60;;
419;SDS011;42600;54.408;13.016;2024-03-25T01:31:28;1.63;;;0.70;;
419;SDS011;42600;54.408;13.016;2024-03-25T01:33:55;2.07;;;1.00;;
419;SDS011;42600;54.408;13.016;2024-03-25T01:36:21;3.20;;;1.27;;
419;SDS011;42600;54.408;13.016;2024-03-25T01:38:47;3.00;;;0.80;;
419;SDS011;42600;54.408;13.016;2024-03-25T01:41:14;0.90;;;0.40;;
419;SDS011;42600;54.408;13.016;2024-03-25T01:43:45;1.87;;;1.23;;
419;SDS011;42600;54.408;13.016;2024-03-25T01:46:11;1.77;;;0.70;;
419;SDS011;42600;54.408;13.016;2024-03-25T01:48:38;2.40;;;1.00;;
419;SDS011;42600;54.408;13.016;2024-03-25T01:51:05;4.33;;;1.40;;
419;SDS011;42600;54.408;13.016;2024-03-25T01:53:32;1.10;;;0.80;;
419;SDS011;42600;54.408;13.016;2024-03-25T01:55:58;1.30;;;1.07;;
419;SDS011;42600;54.408;13.016;2024-03-25T01:58:25;2.80;;;1.13;;
419;SDS011;42600;54.408;13.016;2024-03-25T02:00:51;1.67;;;0.73;;
419;SDS011;42600;54.408;13.016;2024-03-25T02:03:19;2.07;;;1.27;;
419;SDS011;42600;54.408;13.016;2024-03-25T02:05:45;2.53;;;1.17;;
419;SDS011;42600;54.408;13.016;2024-03-25T02:08:13;3.00;;;2.00;;
419;SDS011;42600;54.408;13.016;2024-03-25T02:10:39;2.10;;;1.37;;
419;SDS011;42600;54.408;13.016;2024-03-25T02:13:08;1.53;;;0.90;;
419;SDS011;42600;54.408;13.016;2024-03-25T02:15:34;0.93;;;0.70;;
419;SDS011;42600;54.408;13.016;2024-03-25T02:18:01;2.47;;;1.73;;
419;SDS011;42600;54.408;13.016;2024-03-25T02:20:27;1.27;;;0.83;;
419;SDS011;42600;54.408;13.016;2024-03-25T02:22:54;1.20;;;0.60;;
419;SDS011;42600;54.408;13.016;2024-03-25T02:25:21;1.73;;;1.33;;
419;SDS011;42600;54.408;13.016;2024-03-25T02:27:50;1.30;;;1.30;;
419;SDS011;42600;54.408;13.016;2024-03-25T02:30:15;1.00;;;0.60;;
419;SDS011;42600;54.408;13.016;2024-03-25T02:32:42;3.77;;;1.10;;
419;SDS011;42600;54.408;13.016;2024-03-25T02:35:09;1.53;;;1.10;;
419;SDS011;42600;54.408;13.016;2024-03-25T02:37:38;3.50;;;1.63;;
419;SDS011;42600;54.408;13.016;2024-03-25T02:40:05;2.00;;;0.60;;
419;SDS011;42600;54.408;13.016;2024-03-25T02:42:34;1.30;;;0.60;;
419;SDS011;42600;54.408;13.016;2024-03-25T02:45:02;2.20;;;1.03;;
419;SDS011;42600;54.408;13.016;2024-03-25T02:47:30;1.90;;;1.10;;
419;SDS011;42600;54.408;13.016;2024-03-25T02:49:55;3.93;;;2.10;;
419;SDS011;42600;54.408;13.016;2024-03-25T02:52:22;8.53;;;1.57;;
419;SDS011;42600;54.408;13.016;2024-03-25T02:54:48;1.97;;;0.77;;
419;SDS011;42600;54.408;13.016;2024-03-25T02:57:14;2.40;;;1.27;;
419;SDS011;42600;54.408;13.016;2024-03-25T02:59:41;2.17;;;0.90;;
419;SDS011;42600;54.408;13.016;2024-03-25T03:02:08;1.77;;;0.73;;
419;SDS011;42600;54.408;13.016;2024-03-25T03:04:34;0.90;;;0.57;;
419;SDS011;42600;54.408;13.016;2024-03-25T03:07:00;2.50;;;0.73;;
419;SDS011;42600;54.408;13.016;2024-03-25T03:09:26;1.40;;;1.20;;
419;SDS011;42600;54.408;13.016;2024-03-25T03:11:52;2.73;;;1.10;;
419;SDS011;42600;54.408;13.016;2024-03-25T03:14:18;4.33;;;2.17;;
419;SDS011;42600;54.408;13.016;2024-03-25T03:16:44;3.23;;;1.80;;
419;SDS011;42600;54.408;13.016;2024-03-25T03:19:12;1.00;;;0.50;;
419;SDS011;42600;54.408;13.016;2024-03-25T03:21:38;1.93;;;0.73;;
419;SDS011;42600;54.408;13.016;2024-03-25T03:24:05;1.87;;;0.90;;
419;SDS011;42600;54.408;13.016;2024-03-25T03:26:30;7.47;;;1.80;;
419;SDS011;42600;54.408;13.016;2024-03-25T03:28:57;3.23;;;1.10;;
419;SDS011;42600;54.408;13.016;2024-03-25T03:31:23;1.63;;;1.03;;
419;SDS011;42600;54.408;13.016;2024-03-25T03:33:50;1.17;;;0.90;;
419;SDS011;42600;54.408;13.016;2024-03-25T03:36:17;1.77;;;0.90;;
419;SDS011;42600;54.408;13.016;2024-03-25T03:38:45;0.93;;;0.60;;
419;SDS011;42600;54.408;13.016;2024-03-25T03:41:11;8.10;;;1.60;;
419;SDS011;42600;54.408;13.016;2024-03-25T03:43:38;0.83;;;0.50;;
419;SDS011;42600;54.408;13.016;2024-03-25T03:46:04;1.47;;;1.17;;
419;SDS011;42600;54.408;13.016;2024-03-25T03:48:31;1.80;;;0.77;;
419;SDS011;42600;54.408;13.016;2024-03-25T03:50:56;1.00;;;0.57;;
419;SDS011;42600;54.408;13.016;2024-03-25T03:53:24;1.07;;;0.70;;
419;SDS011;42600;54.408;13.016;2024-03-25T03:55:53;2.60;;;1.83;;
419;SDS011;42600;54.408;13.016;2024-03-25T03:58:20;3.53;;;2.10;;
419;SDS011;42600;54.408;13.016;2024-03-25T04:00:46;5.30;;;3.10;;
419;SDS011;42600;54.408;13.016;2024-03-25T04:03:13;3.53;;;1.80;;
419;SDS011;42600;54.408;13.016;2024-03-25T04:05:38;2.67;;;1.00;;
419;SDS011;42600;54.408;13.016;2024-03-25T04:08:05;3.10;;;1.03;;
419;SDS011;42600;54.408;13.016;2024-03-25T04:10:33;1.73;;;1.00;;
419;SDS011;42600;54.408;13.016;2024-03-25T04:13:00;1.87;;;0.90;;
419;SDS011;42600;54.408;13.016;2024-03-25T04:15:25;1.73;;;1.20;;
419;SDS011;42600;54.408;13.016;2024-03-25T04:17:52;1.37;;;0.80;;
419;SDS011;42600;54.408;13.016;2024-03-25T04:20:18;2.00;;;1.17;;
419;SDS011;42600;54.408;13.016;2024-03-25T04:22:45;2.63;;;1.83;;
419;SDS011;42600;54.408;13.016;2024-03-25T04:25:11;2.57;;;1.13;;
419;SDS011;42600;54.408;13.016;2024-03-25T04:27:40;4.20;;;2.50;;
419;SDS011;42600;54.408;13.016;2024-03-25T04:30:06;1.90;;;1.00;;
419;SDS011;42600;54.408;13.016;2024-03-25T04:32:34;4.40;;;1.73;;
419;SDS011;42600;54.408;13.016;2024-03-25T04:35:00;2.93;;;1.43;;
419;SDS011;42600;54.408;13.016;2024-03-25T04:37:28;1.80;;;0.90;;
419;SDS011;42600;54.408;13.016;2024-03-25T04:39:54;1.47;;;0.90;;
419;SDS011;42600;54.408;13.016;2024-03-25T04:42:20;3.23;;;0.97;;
419;SDS011;42600;54.408;13.016;2024-03-25T04:44:48;1.47;;;0.70;;
419;SDS011;42600;54.408;13.016;2024-03-25T04:47:13;1.57;;;0.77;;
419;SDS011;42600;54.408;13.016;2024-03-25T04:49:39;7.93;;;1.17;;
419;SDS011;42600;54.408;13.016;2024-03-25T04:52:05;1.10;;;0.70;;
419;SDS011;42600;54.408;13.016;2024-03-25T04:54:31;1.63;;;1.27;;
419;SDS011;42600;54.408;13.016;2024-03-25T04:56:57;1.23;;;0.80;;
419;SDS011;42600;54.408;13.016;2024-03-25T04:59:22;1.47;;;0.93;;
419;SDS011;42600;54.408;13.016;2024-03-25T05:01:49;1.27;;;0.70;;
419;SDS011;42600;54.408;13.016;2024-03-25T05:04:15;2.00;;;1.17;;
419;SDS011;42600;54.408;13.016;2024-03-25T05:06:41;2.70;;;0.97;;
419;SDS011;42600;54.408;13.016;2024-03-25T05:09:07;0.90;;;0.40;;
419;SDS011;42600;54.408;13.016;2024-03-25T05:11:33;3.33;;;0.90;;
419;SDS011;42600;54.408;13.016;2024-03-25T05:13:58;3.40;;;2.03;;
419;SDS011;42600;54.408;13.016;2024-03-25T05:16:24;6.97;;;1.10;;
419;SDS011;42600;54.408;13.016;2024-03-25T05:18:51;1.87;;;0.70;;
419;SDS011;42600;54.408;13.016;2024-03-25T05:21:17;1.00;;;0.60;;
419;SDS011;42600;54.408;13.016;2024-03-25T05:23:43;5.20;;;1.93;;
419;SDS011;42600;54.408;13.016;2024-03-25T05:26:08;1.37;;;0.57;;
419;SDS011;42600;54.408;13.016;2024-03-25T05:28:34;0.83;;;0.50;;
419;SDS011;42600;54.408;13.016;2024-03-25T05:31:04;2.53;;;0.90;;
419;SDS011;42600;54.408;13.016;2024-03-25T05:33:31;1.27;;;0.57;;
419;SDS011;42600;54.408;13.016;2024-03-25T05:35:58;1.27;;;0.80;;
419;SDS011;42600;54.408;13.016;2024-03-25T05:38:23;1.77;;;0.50;;
419;SDS011;42600;54.408;13.016;2024-03-25T05:40:49;1.37;;;0.83;;
419;SDS011;42600;54.408;13.016;2024-03-25T05:43:15;1.63;;;1.40;;
419;SDS011;42600;54.408;13.016;2024-03-25T05:45:41;2.67;;;1.80;;
419;SDS011;42600;54.408;13.016;2024-03-25T05:48:14;2.03;;;1.10;;
419;SDS011;42600;54.408;13.016;2024-03-25T05:50:40;4.67;;;1.90;;
419;SDS011;42600;54.408;13.016;2024-03-25T05:53:07;4.00;;;1.43;;
419;SDS011;42600;54.408;13.016;2024-03-25T05:55:33;5.33;;;1.17;;
419;SDS011;42600;54.408;13.016;2024-03-25T05:57:59;2.77;;;1.00;;
419;SDS011;42600;54.408;13.016;2024-03-25T06:00:25;1.57;;;1.27;;
419;SDS011;42600;54.408;13.016;2024-03-25T06:02:51;1.30;;;0.80;;
419;SDS011;42600;54.408;13.016;2024-03-25T06:05:17;6.50;;;1.37;;
419;SDS011;42600;54.408;13.016;2024-03-25T06:07:43;1.00;;;0.57;;
419;SDS011;42600;54.408;13.016;2024-03-25T06:10:10;1.00;;;0.60;;
419;SDS011;42600;54.408;13.016;2024-03-25T06:12:36;3.73;;;1.23;;
419;SDS011;42600;54.408;13.016;2024-03-25T06:15:01;2.70;;;0.70;;
419;SDS011;42600;54.408;13.016;2024-03-25T06:17:28;2.20;;;0.67;;
419;SDS011;42600;54.408;13.016;2024-03-25T06:19:53;1.17;;;0.50;;
419;SDS011;42600;54.408;13.016;2024-03-25T06:22:19;3.10;;;1.23;;
419;SDS011;42600;54.408;13.016;2024-03-25T06:24:45;1.90;;;0.97;;
419;SDS011;42600;54.408;13.016;2024-03-25T06:27:12;10.03;;;1.70;;
419;SDS011;42600;54.408;13.016;2024-03-25T06:29:37;6.07;;;3.90;;
419;SDS011;42600;54.408;13.016;2024-03-25T06:32:03;1.90;;;1.10;;
419;SDS011;42600;54.408;13.016;2024-03-25T06:34:48;1.30;;;1.03;;
419;SDS011;42600;54.408;13.016;2024-03-25T06:37:13;2.63;;;1.30;;
419;SDS011;42600;54.408;13.016;2024-03-25T06:39:39;2.77;;;2.37;;
419;SDS011;42600;54.408;13.016;2024-03-25T06:42:05;1.00;;;0.70;;
419;SDS011;42600;54.408;13.016;2024-03-25T06:44:32;6.30;;;2.87;;
419;SDS011;42600;54.408;13.016;2024-03-25T06:46:58;1.70;;;1.47;;
419;SDS011;42600;54.408;13.016;2024-03-25T06:49:23;7.70;;;2.77;;
419;SDS011;42600;54.408;13.016;2024-03-25T06:51:49;9.23;;;3.50;;
419;SDS011;42600;54.408;13.016;2024-03-25T06:54:15;2.13;;;1.47;;
419;SDS011;42600;54.408;13.016;2024-03-25T06:56:41;2.83;;;1.40;;
419;SDS011;42600;54.408;13.016;2024-03-25T06:59:07;4.87;;;2.30;;
419;SDS011;42600;54.408;13.016;2024-03-25T07:01:34;13.33;;;1.97;;
419;SDS011;42600;54.408;13.016;2024-03-25T07:03:59;7.43;;;1.30;;
419;SDS011;42600;54.408;13.016;2024-03-25T07:06:25;7.00;;;1.73;;
419;SDS011;42600;54.408;13.016;2024-03-25T07:08:51;1.90;;;1.47;;
419;SDS011;42600;54.408;13.016;2024-03-25T07:11:17;6.37;;;2.50;;
419;SDS011;42600;54.408;13.016;2024-03-25T07:13:43;17.40;;;4.83;;
419;SDS011;42600;54.408;13.016;2024-03-25T07:16:08;3.83;;;1.80;;
419;SDS011;42600;54.408;13.016;2024-03-25T07:18:36;3.00;;;1.60;;
419;SDS011;42600;54.408;13.016;2024-03-25T07:21:04;6.73;;;4.57;;
419;SDS011;42600;54.408;13.016;2024-03-25T07:23:30;11.00;;;2.57;;
419;SDS011;42600;54.408;13.016;2024-03-25T07:25:56;12.03;;;3.60;;
419;SDS011;42600;54.408;13.016;2024-03-25T07:28:21;8.43;;;2.00;;
419;SDS011;42600;54.408;13.016;2024-03-25T07:30:49;3.50;;;2.90;;
419;SDS011;42600;54.408;13.016;2024-03-25T07:33:15;4.37;;;2.27;;
419;SDS011;42600;54.408;13.016;2024-03-25T07:35:42;14.27;;;4.17;;
419;SDS011;42600;54.408;13.016;2024-03-25T07:38:08;4.70;;;2.97;;
419;SDS011;42600;54.408;13.016;2024-03-25T07:40:33;7.23;;;1.70;;
419;SDS011;42600;54.408;13.016;2024-03-25T07:42:59;7.00;;;2.97;;
419;SDS011;42600;54.408;13.016;2024-03-25T07:45:25;7.37;;;3.53;;
419;SDS011;42600;54.408;13.016;2024-03-25T07:47:51;14.83;;;2.20;;
419;SDS011;42600;54.408;13.016;2024-03-25T07:50:16;10.60;;;2.33;;
419;SDS011;42600;54.408;13.016;2024-03-25T07:52:43;10.53;;;5.70;;
419;SDS011;42600;54.408;13.016;2024-03-25T07:55:09;7.90;;;3.03;;
419;SDS011;42600;54.408;13.016;2024-03-25T07:57:35;4.77;;;3.23;;
419;SDS011;42600;54.408;13.016;2024-03-25T08:00:01;3.70;;;1.03;;
419;SDS011;42600;54.408;13.016;2024-03-25T08:02:28;20.97;;;4.60;;
419;SDS011;42600;54.408;13.016;2024-03-25T08:04:54;3.50;;;2.07;;
419;SDS011;42600;54.408;13.016;2024-03-25T08:07:19;6.33;;;2.60;;
419;SDS011;42600;54.408;13.016;2024-03-25T08:09:46;8.63;;;1.93;;
419;SDS011;42600;54.408;13.016;2024-03-25T08:12:12;10.07;;;3.50;;
419;SDS011;42600;54.408;13.016;2024-03-25T08:14:38;13.00;;;2.57;;
419;SDS011;42600;54.408;13.016;2024-03-25T08:17:04;13.47;;;2.23;;
419;SDS011;42600;54.408;13.016;2024-03-25T08:19:29;10.77;;;3.97;;
419;SDS011;42600;54.408;13.016;2024-03-25T08:21:55;7.77;;;3.50;;
419;SDS011;42600;54.408;13.016;2024-03-25T08:24:21;6.53;;;2.83;;
419;SDS011;42600;54.408;13.016;2024-03-25T08:26:48;5.30;;;2.37;;
419;SDS011;42600;54.408;13.016;2024-03-25T08:29:14;12.87;;;4.23;;
419;SDS011;42600;54.408;13.016;2024-03-25T08:31:40;4.97;;;4.27;;
419;SDS011;42600;54.408;13.016;2024-03-25T08:34:05;10.20;;;3.33;;
419;SDS011;42600;54.408;13.016;2024-03-25T08:36:31;16.13;;;3.37;;
419;SDS011;42600;54.408;13.016;2024-03-25T08:38:57;16.33;;;3.00;;
419;SDS011;42600;54.408;13.016;2024-03-25T08:41:23;7.00;;;2.77;;
419;SDS011;42600;54.408;13.016;2024-03-25T08:43:50;10.80;;;2.60;;
419;SDS011;42600;54.408;13.016;2024-03-25T08:46:16;8.43;;;2.70;;
419;SDS011;42600;54.408;13.016;2024-03-25T08:48:42;12.10;;;3.17;;
419;SDS011;42600;54.408;13.016;2024-03-25T08:51:07;18.57;;;10.33;;
419;SDS011;42600;54.408;13.016;2024-03-25T08:53:33;13.30;;;4.10;;
419;SDS011;42600;54.408;13.016;2024-03-25T08:55:59;8.53;;;3.20;;
419;SDS011;42600;54.408;13.016;2024-03-25T08:58:25;8.50;;;3.60;;
419;SDS011;42600;54.408;13.016;2024-03-25T09:00:52;11.60;;;6.40;;
419;SDS011;42600;54.408;13.016;2024-03-25T09:03:17;18.90;;;6.97;;
419;SDS011;42600;54.408;13.016;2024-03-25T09:05:46;3.77;;;2.40;;
419;SDS011;42600;54.408;13.016;2024-03-25T09:08:12;16.27;;;6.27;;
419;SDS011;42600;54.408;13.016;2024-03-25T09:10:38;8.97;;;4.63;;
419;SDS011;42600;54.408;13.016;2024-03-25T09:13:22;44.77;;;5.63;;
419;SDS011;42600;54.408;13.016;2024-03-25T09:15:48;29.63;;;7.03;;
419;SDS011;42600;54.408;13.016;2024-03-25T09:18:15;12.70;;;4.00;;
419;SDS011;42600;54.408;13.016;2024-03-25T09:20:41;16.60;;;6.50;;
419;SDS011;42600;54.408;13.016;2024-03-25T09:23:06;15.17;;;4.50;;
419;SDS011;42600;54.408;13.016;2024-03-25T09:25:32;6.10;;;2.90;;
419;SDS011;42600;54.408;13.016;2024-03-25T09:27:58;8.90;;;2.60;;
419;SDS011;42600;54.408;13.016;2024-03-25T09:30:24;3.30;;;2.23;;
419;SDS011;42600;54.408;13.016;2024-03-25T09:32:50;9.00;;;2.77;;
419;SDS011;42600;54.408;13.016;2024-03-25T09:35:17;5.03;;;1.53;;
419;SDS011;42600;54.408;13.016;2024-03-25T09:37:43;8.57;;;3.57;;
419;SDS011;42600;54.408;13.016;2024-03-25T09:40:09;5.73;;;2.33;;
419;SDS011;42600;54.408;13.016;2024-03-25T09:42:39;4.03;;;3.63;;
419;SDS011;42600;54.408;13.016;2024-03-25T09:45:11;2.70;;;0.90;;
419;SDS011;42600;54.408;13.016;2024-03-25T09:47:41;3.00;;;1.23;;
419;SDS011;42600;54.408;13.016;2024-03-25T09:50:10;1.10;;;0.73;;
419;SDS011;42600;54.408;13.016;2024-03-25T09:52:39;5.13;;;1.57;;
419;SDS011;42600;54.408;13.016;2024-03-25T09:55:05;1.37;;;0.60;;
419;SDS011;42600;54.408;13.016;2024-03-25T09:57:32;7.30;;;1.30;;
419;SDS011;42600;54.408;13.016;2024-03-25T09:59:59;5.43;;;2.50;;
419;SDS011;42600;54.408;13.016;2024-03-25T10:02:26;3.93;;;1.73;;
419;SDS011;42600;54.408;13.016;2024-03-25T10:04:54;1.57;;;0.97;;
419;SDS011;42600;54.408;13.016;2024-03-25T10:07:21;4.40;;;1.43;;
419;SDS011;42600;54.408;13.016;2024-03-25T10:09:49;2.73;;;1.73;;
419;SDS011;42600;54.408;13.016;2024-03-25T10:12:15;5.63;;;1.27;;
419;SDS011;42600;54.408;13.016;2024-03-25T10:14:41;3.53;;;0.93;;
419;SDS011;42600;54.408;13.016;2024-03-25T10:17:07;1.90;;;0.90;;
419;SDS011;42600;54.408;13.016;2024-03-25T10:19:33;1.20;;;0.60;;
419;SDS011;42600;54.408;13.016;2024-03-25T10:22:02;2.17;;;0.97;;
419;SDS011;42600;54.408;13.016;2024-03-25T10:24:36;1.93;;;0.90;;
419;SDS011;42600;54.408;13.016;2024-03-25T10:27:04;2.60;;;0.80;;
419;SDS011;42600;54.408;13.016;2024-03-25T10:29:30;2.07;;;0.93;;
419;SDS011;42600;54.408;13.016;2024-03-25T10:31:59;2.30;;;1.23;;
419;SDS011;42600;54.408;13.016;2024-03-25T10:34:24;3.33;;;1.03;;
419;SDS011;42600;54.408;13.016;2024-03-25T10:36:50;9.77;;;2.20;;
419;SDS011;42600;54.408;13.016;2024-03-25T10:39:18;1.50;;;1.03;;
419;SDS011;42600;54.408;13.016;2024-03-25T10:41:45;1.87;;;0.97;;
419;SDS011;42600;54.408;13.016;2024-03-25T10:44:13;2.23;;;0.97;;
419;SDS011;42600;54.408;13.016;2024-03-25T10:46:40;3.97;;;1.87;;
419;SDS011;42600;54.408;13.016;2024-03-25T10:49:07;8.73;;;2.87;;
419;SDS011;42600;54.408;13.016;2024-03-25T10:51:41;8.10;;;2.10;;
419;SDS011;42600;54.408;13.016;2024-03-25T10:54:08;6.33;;;2.47;;
419;SDS011;42600;54.408;13.016;2024-03-25T10:56:35;4.50;;;1.83;;
419;SDS011;42600;54.408;13.016;2024-03-25T10:59:02;3.20;;;2.13;;
419;SDS011;42600;54.408;13.016;2024-03-25T11:01:30;17.90;;;3.10;;
419;SDS011;42600;54.408;13.016;2024-03-25T11:03:56;2.87;;;1.27;;
419;SDS011;42600;54.408;13.016;2024-03-25T11:06:22;2.20;;;1.47;;
419;SDS011;42600;54.408;13.016;2024-03-25T11:08:55;21.23;;;1.73;;
419;SDS011;42600;54.408;13.016;2024-03-25T11:11:21;5.23;;;2.00;;
419;SDS011;42600;54.408;13.016;2024-03-25T11:13:47;2.23;;;1.70;;
419;SDS011;42600;54.408;13.016;2024-03-25T11:16:13;2.70;;;1.47;;
419;SDS011;42600;54.408;13.016;2024-03-25T11:18:40;2.23;;;1.60;;
419;SDS011;42600;54.408;13.016;2024-03-25T11:21:23;1.87;;;1.10;;
419;SDS011;42600;54.408;13.016;2024-03-25T11:23:50;6.00;;;1.77;;
419;SDS011;42600;54.408;13.016;2024-03-25T11:26:16;1.40;;;0.90;;
419;SDS011;42600;54.408;13.016;2024-03-25T11:28:43;3.43;;;1.43;;
419;SDS011;42600;54.408;13.016;2024-03-25T11:31:09;6.97;;;2.40;;
419;SDS011;42600;54.408;13.016;2024-03-25T11:33:36;2.30;;;1.50;;
419;SDS011;42600;54.408;13.016;2024-03-25T11:36:03;1.10;;;0.70;;
419;SDS011;42600;54.408;13.016;2024-03-25T11:38:30;0.90;;;0.43;;
419;SDS011;42600;54.408;13.016;2024-03-25T11:40:55;1.80;;;1.27;;
419;SDS011;42600;54.408;13.016;2024-03-25T11:43:22;4.50;;;1.23;;
419;SDS011;42600;54.408;13.016;2024-03-25T11:45:48;5.60;;;0.83;;
419;SDS011;42600;54.408;13.016;2024-03-25T11:48:14;1.90;;;1.00;;
419;SDS011;42600;54.408;13.016;2024-03-25T11:50:40;2.87;;;0.50;;
419;SDS011;42600;54.408;13.016;2024-03-25T11:53:07;1.40;;;0.60;;
419;SDS011;42600;54.408;13.016;2024-03-25T11:55:33;0.90;;;0.50;;
419;SDS011;42600;54.408;13.016;2024-03-25T11:57:59;4.10;;;1.07;;
419;SDS011;42600;54.408;13.016;2024-03-25T12:00:24;1.10;;;0.70;;
419;SDS011;42600;54.408;13.016;2024-03-25T12:02:50;1.00;;;0.67;;
419;SDS011;42600;54.408;13.016;2024-03-25T12:05:16;2.23;;;0.70;;
419;SDS011;42600;54.408;13.016;2024-03-25T12:07:42;3.53;;;1.50;;
419;SDS011;42600;54.408;13.016;2024-03-25T12:10:09;1.10;;;0.70;;
419;SDS011;42600;54.408;13.016;2024-03-25T12:12:54;1.77;;;1.00;;
419;SDS011;42600;54.408;13.016;2024-03-25T12:15:20;3.00;;;1.57;;
419;SDS011;42600;54.408;13.016;2024-03-25T12:17:46;3.63;;;1.90;;
419;SDS011;42600;54.408;13.016;2024-03-25T12:20:12;1.00;;;0.60;;
419;SDS011;42600;54.408;13.016;2024-03-25T12:22:39;2.17;;;1.73;;
419;SDS011;42600;54.408;13.016;2024-03-25T12:25:05;5.27;;;1.33;;
419;SDS011;42600;54.408;13.016;2024-03-25T12:27:36;2.03;;;1.20;;
419;SDS011;42600;54.408;13.016;2024-03-25T12:30:03;1.50;;;0.70;;
419;SDS011;42600;54.408;13.016;2024-03-25T12:32:31;2.00;;;1.27;;
419;SDS011;42600;54.408;13.016;2024-03-25T12:35:01;1.57;;;0.70;;
419;SDS011;42600;54.408;13.016;2024-03-25T12:37:27;1.53;;;0.70;;
419;SDS011;42600;54.408;13.016;2024-03-25T12:39:53;1.57;;;1.23;;
419;SDS011;42600;54.408;13.016;2024-03-25T12:42:18;2.90;;;2.00;;
419;SDS011;42600;54.408;13.016;2024-03-25T12:44:46;2.87;;;1.70;;
419;SDS011;42600;54.408;13.016;2024-03-25T12:47:12;5.23;;;1.57;;
419;SDS011;42600;54.408;13.016;2024-03-25T12:49:37;3.17;;;1.13;;
419;SDS011;42600;54.408;13.016;2024-03-25T12:52:04;5.07;;;0.70;;
419;SDS011;42600;54.408;13.016;2024-03-25T12:54:31;2.20;;;1.00;;
419;SDS011;42600;54.408;13.016;2024-03-25T12:56:57;1.67;;;0.50;;
419;SDS011;42600;54.408;13.016;2024-03-25T12:59:23;1.63;;;1.07;;
419;SDS011;42600;54.408;13.016;2024-03-25T13:01:50;4.50;;;0.70;;
419;SDS011;42600;54.408;13.016;2024-03-25T13:04:16;1.67;;;1.27;;
419;SDS011;42600;54.408;13.016;2024-03-25T13:06:42;3.50;;;1.93;;
419;SDS011;42600;54.408;13.016;2024-03-25T13:09:07;1.07;;;0.60;;
419;SDS011;42600;54.408;13.016;2024-03-25T13:11:33;6.50;;;1.60;;
419;SDS011;42600;54.408;13.016;2024-03-25T13:13:59;1.60;;;0.63;;
419;SDS011;42600;54.408;13.016;2024-03-25T13:16:25;1.77;;;0.80;;
419;SDS011;42600;54.408;13.016;2024-03-25T13:18:52;1.20;;;0.60;;
419;SDS011;42600;54.408;13.016;2024-03-25T13:21:17;0.80;;;0.40;;
419;SDS011;42600;54.408;13.016;2024-03-25T13:23:43;1.40;;;0.47;;
419;SDS011;42600;54.408;13.016;2024-03-25T13:26:09;4.70;;;0.93;;
419;SDS011;42600;54.408;13.016;2024-03-25T13:28:35;4.03;;;2.27;;
419;SDS011;42600;54.408;13.016;2024-03-25T13:31:00;1.33;;;1.07;;
419;SDS011;42600;54.408;13.016;2024-03-25T13:33:26;1.80;;;0.53;;
419;SDS011;42600;54.408;13.016;2024-03-25T13:35:53;1.37;;;0.67;;
419;SDS011;42600;54.408;13.016;2024-03-25T13:38:19;1.53;;;0.90;;
419;SDS011;42600;54.408;13.016;2024-03-25T13:40:45;2.80;;;1.00;;
419;SDS011;42600;54.408;13.016;2024-03-25T13:43:10;2.80;;;0.73;;
419;SDS011;42600;54.408;13.016;2024-03-25T13:45:36;13.07;;;0.87;;
419;SDS011;42600;54.408;13.016;2024-03-25T13:48:11;1.70;;;0.53;;
419;SDS011;42600;54.408;13.016;2024-03-25T13:50:37;1.67;;;1.23;;
419;SDS011;42600;54.408;13.016;2024-03-25T13:53:04;5.70;;;1.13;;
419;SDS011;42600;54.408;13.016;2024-03-25T13:55:30;3.70;;;1.17;;
419;SDS011;42600;54.408;13.016;2024-03-25T13:57:56;2.00;;;0.87;;
419;SDS011;42600;54.408;13.016;2024-03-25T14:00:21;2.27;;;0.60;;
419;SDS011;42600;54.408;13.016;2024-03-25T14:02:47;1.20;;;0.83;;
419;SDS011;42600;54.408;13.016;2024-03-25T14:05:13;0.80;;;0.40;;
419;SDS011;42600;54.408;13.016;2024-03-25T14:07:39;1.53;;;0.67;;
419;SDS011;42600;54.408;13.016;2024-03-25T14:10:06;0.90;;;0.50;;
419;SDS011;42600;54.408;13.016;2024-03-25T14:12:32;2.13;;;0.93;;
419;SDS011;42600;54.408;13.016;2024-03-25T14:14:58;1.30;;;0.97;;
419;SDS011;42600;54.408;13.016;2024-03-25T14:17:24;1.00;;;0.40;;
419;SDS011;42600;54.408;13.016;2024-03-25T14:19:53;2.30;;;1.23;;
419;SDS011;42600;54.408;13.016;2024-03-25T14:22:20;1.10;;;0.70;;
419;SDS011;42600;54.408;13.016;2024-03-25T14:24:46;2.70;;;1.67;;
419;SDS011;42600;54.408;13.016;2024-03-25T14:27:13;2.60;;;0.80;;
419;SDS011;42600;54.408;13.016;2024-03-25T14:29:39;1.20;;;0.60;;
419;SDS011;42600;54.408;13.016;2024-03-25T14:32:05;2.60;;;0.80;;
419;SDS011;42600;54.408;13.016;2024-03-25T14:34:31;1.80;;;0.83;;
419;SDS011;42600;54.408;13.016;2024-03-25T14:36:57;1.20;;;0.70;;
419;SDS011;42600;54.408;13.016;2024-03-25T14:39:23;1.23;;;0.57;;
419;SDS011;42600;54.408;13.016;2024-03-25T14:41:49;2.17;;;0.97;;
419;SDS011;42600;54.408;13.016;2024-03-25T14:44:16;2.60;;;1.30;;
419;SDS011;42600;54.408;13.016;2024-03-25T14:46:42;3.73;;;0.80;;
419;SDS011;42600;54.408;13.016;2024-03-25T14:49:07;1.10;;;0.70;;
419;SDS011;42600;54.408;13.016;2024-03-25T14:51:33;1.47;;;0.80;;
419;SDS011;42600;54.408;13.016;2024-03-25T14:53:59;1.43;;;0.50;;
419;SDS011;42600;54.408;13.016;2024-03-25T14:56:25;2.60;;;0.60;;